Time;durP1;ratioP1;P1;durP2;ratioP2;P2;SDS_P1;SDS_P2;PMS_P1;PMS_P2;Temp;Humidity;BMP_temperature;BMP_pressure;BME280_temperature;BME280_humidity;BME280_pressure;Samples;Min_cycle;Max_cycle;Signal;HPM_P1;HPM_P2
2021/06/14 00:02:07;;;;;;;5.50;2.28;;;19.90;83.70;;;;;;5111259;28;20079;-79
2021/06/14 00:04:33;;;;;;;12.00;2.70;;;19.90;84.00;;;;;;5076709;28;20034;-78
2021/06/14 00:06:59;;;;;;;5.35;2.55;;;19.90;84.40;;;;;;5112319;28;20051;-80
2021/06/14 00:09:25;;;;;;;3.90;2.10;;;19.80;84.60;;;;;;5110508;28;20038;-80
2021/06/14 00:11:52;;;;;;;3.92;2.40;;;19.80;84.80;;;;;;5111663;28;20034;-81
2021/06/14 00:14:19;;;;;;;3.35;2.38;;;19.80;85.10;;;;;;5112282;28;20059;-80
2021/06/14 00:16:44;;;;;;;6.43;2.92;;;19.70;85.30;;;;;;5111139;28;20024;-78
2021/06/14 00:19:10;;;;;;;4.45;2.70;;;19.70;85.60;;;;;;5093427;28;20081;-80
2021/06/14 00:21:37;;;;;;;6.32;3.15;;;19.70;85.90;;;;;;5092942;28;20070;-80
2021/06/14 00:24:04;;;;;;;3.85;2.40;;;19.60;86.20;;;;;;5110546;28;20055;-80
2021/06/14 00:26:30;;;;;;;6.68;2.67;;;19.50;86.40;;;;;;5109863;28;20084;-79
2021/06/14 00:28:56;;;;;;;4.15;2.17;;;19.50;86.70;;;;;;5110727;28;20481;-80
2021/06/14 00:31:23;;;;;;;4.10;2.58;;;19.40;87.10;;;;;;5112943;28;20027;-78
2021/06/14 00:33:48;;;;;;;5.13;2.65;;;19.40;87.40;;;;;;5112870;28;20056;-80
2021/06/14 00:36:15;;;;;;;7.30;2.25;;;19.40;87.70;;;;;;5094590;28;20045;-81
2021/06/14 00:38:40;;;;;;;4.95;2.33;;;19.30;87.80;;;;;;5112148;28;20055;-79
2021/06/14 00:41:08;;;;;;;4.60;2.55;;;19.30;88.10;;;;;;5111165;28;20020;-81
2021/06/14 00:43:34;;;;;;;5.63;2.50;;;19.20;88.40;;;;;;5112039;28;20059;-80
2021/06/14 00:46:01;;;;;;;4.70;2.97;;;19.10;88.70;;;;;;5094056;28;20031;-81
2021/06/14 00:48:27;;;;;;;5.10;1.95;;;19.10;89.00;;;;;;5112244;28;20020;-79
2021/06/14 00:51:04;;;;;;;6.65;1.98;;;19.00;89.30;;;;;;5110004;28;20023;-81
2021/06/14 00:53:32;;;;;;;6.00;3.03;;;19.00;89.70;;;;;;5111530;28;20023;-79
2021/06/14 00:56:00;;;;;;;6.00;2.47;;;19.00;90.00;;;;;;5112151;28;20103;-78
2021/06/14 00:58:27;;;;;;;4.03;2.40;;;19.00;90.10;;;;;;5110651;28;20039;-79
2021/06/14 01:00:53;;;;;;;7.80;2.55;;;19.00;90.50;;;;;;5094186;28;20536;-79
2021/06/14 01:03:20;;;;;;;8.00;2.70;;;19.10;90.40;;;;;;5094949;28;20107;-78
2021/06/14 01:05:58;;;;;;;5.40;2.40;;;19.10;90.40;;;;;;5111913;28;20386;-80
2021/06/14 01:08:25;;;;;;;6.10;2.30;;;19.10;90.50;;;;;;5113048;28;20027;-79
2021/06/14 01:10:51;;;;;;;4.45;2.30;;;19.20;90.50;;;;;;5111611;28;20035;-79
2021/06/14 01:13:30;;;;;;;5.07;2.60;;;19.20;90.60;;;;;;5110161;28;20490;-79
2021/06/14 01:16:18;;;;;;;4.13;2.22;;;19.20;90.60;;;;;;5111535;28;20076;-81
2021/06/14 01:18:57;;;;;;;4.20;2.03;;;19.30;90.60;;;;;;5111716;28;20120;-78
2021/06/14 01:21:51;;;;;;;8.25;2.40;;;19.30;90.70;;;;;;5111572;28;20031;-79
2021/06/14 01:24:54;;;;;;;5.15;2.20;;;19.40;90.70;;;;;;5110344;28;20500;-79
2021/06/14 01:27:47;;;;;;;5.68;2.17;;;19.40;90.70;;;;;;5111716;28;20028;-80
2021/06/14 01:30:19;;;;;;;5.25;2.38;;;19.40;90.70;;;;;;5109782;28;20055;-79
2021/06/14 01:32:46;;;;;;;5.53;2.13;;;19.40;90.60;;;;;;5109971;28;20068;-78
2021/06/14 01:35:14;;;;;;;4.38;2.08;;;19.40;90.70;;;;;;5109534;28;20019;-80
2021/06/14 01:37:45;;;;;;;4.80;2.28;;;19.40;90.80;;;;;;5109716;28;20026;-79
2021/06/14 01:40:13;;;;;;;3.17;2.50;;;19.50;90.80;;;;;;5109195;28;20603;-80
2021/06/14 01:42:40;;;;;;;10.55;3.33;;;19.50;90.80;;;;;;5108756;28;20032;-80
2021/06/14 01:45:07;;;;;;;5.10;2.22;;;19.50;90.80;;;;;;5074816;28;20114;-79
2021/06/14 01:47:34;;;;;;;6.18;2.35;;;19.50;90.90;;;;;;5075519;28;20032;-81
2021/06/14 01:50:01;;;;;;;4.30;1.95;;;19.50;90.90;;;;;;5108656;28;20034;-79
2021/06/14 01:52:27;;;;;;;5.03;2.40;;;19.50;91.00;;;;;;5074993;28;20448;-79
2021/06/14 01:54:54;;;;;;;8.60;2.88;;;19.50;91.20;;;;;;5109324;28;20037;-78
2021/06/14 01:57:21;;;;;;;7.00;3.35;;;19.50;91.10;;;;;;5093073;28;20024;-80
2021/06/14 01:59:49;;;;;;;5.60;3.35;;;19.50;91.30;;;;;;5090645;28;20024;-80
2021/06/14 02:02:15;;;;;;;7.38;2.95;;;19.40;91.50;;;;;;5109016;28;20126;-81
2021/06/14 02:04:44;;;;;;;4.90;3.40;;;19.40;91.60;;;;;;5091384;28;20035;-80
2021/06/14 02:07:11;;;;;;;6.50;3.33;;;19.20;91.70;;;;;;5108794;28;20053;-79
2021/06/14 02:09:37;;;;;;;7.57;3.00;;;19.00;91.90;;;;;;5108374;28;20099;-79
2021/06/14 02:12:04;;;;;;;2.75;1.95;;;18.90;92.20;;;;;;5108117;28;20119;-78
2021/06/14 02:14:33;;;;;;;2.65;1.63;;;18.70;92.50;;;;;;5108952;28;20027;-79
2021/06/14 02:17:05;;;;;;;2.13;1.38;;;18.50;92.50;;;;;;5111022;28;20019;-79
2021/06/14 02:19:31;;;;;;;1.85;1.20;;;18.40;92.60;;;;;;5110246;28;20024;-80
2021/06/14 02:21:57;;;;;;;2.58;1.42;;;18.30;92.70;;;;;;5109753;28;20034;-78
2021/06/14 02:24:22;;;;;;;1.90;1.30;;;18.30;92.70;;;;;;5109544;28;20386;-79
2021/06/14 02:26:48;;;;;;;1.77;1.02;;;18.20;92.70;;;;;;5110120;28;20148;-78
2021/06/14 02:29:16;;;;;;;1.90;1.27;;;18.20;92.70;;;;;;5094294;28;20039;-79
2021/06/14 02:31:41;;;;;;;3.10;1.10;;;18.20;92.70;;;;;;5093541;28;20038;-82
2021/06/14 02:34:09;;;;;;;1.73;0.80;;;18.20;92.60;;;;;;5093846;28;20358;-78
2021/06/14 02:36:36;;;;;;;3.35;1.70;;;18.20;92.60;;;;;;5093457;28;20024;-78
2021/06/14 02:39:15;;;;;;;2.17;0.70;;;18.20;92.50;;;;;;5111039;28;20016;-77
2021/06/14 02:41:43;;;;;;;2.40;0.80;;;18.20;92.50;;;;;;5110376;28;20477;-78
2021/06/14 02:44:10;;;;;;;1.48;0.60;;;18.30;92.50;;;;;;5110820;28;20034;-78
2021/06/14 02:46:39;;;;;;;2.03;0.90;;;18.30;92.40;;;;;;5077268;28;20050;-79
2021/06/14 02:49:06;;;;;;;2.50;0.98;;;18.30;92.50;;;;;;5111540;28;20031;-81
2021/06/14 02:51:33;;;;;;;1.48;0.73;;;18.30;92.60;;;;;;5112505;28;20058;-79
2021/06/14 02:54:04;;;;;;;0.47;0.43;;;18.30;92.70;;;;;;5109559;28;20034;-80
2021/06/14 02:56:33;;;;;;;0.90;0.60;;;18.20;92.70;;;;;;5092329;28;20024;-79
2021/06/14 02:59:01;;;;;;;0.97;0.60;;;18.10;92.80;;;;;;5109847;28;20477;-81
2021/06/14 03:01:29;;;;;;;0.63;0.38;;;18.00;92.90;;;;;;5109046;28;20092;-79
2021/06/14 03:03:57;;;;;;;1.10;0.47;;;17.90;93.00;;;;;;5111235;28;20501;-78
2021/06/14 03:06:24;;;;;;;0.40;0.40;;;17.80;93.00;;;;;;5093200;28;20051;-78
2021/06/14 03:08:51;;;;;;;0.52;0.40;;;17.70;93.20;;;;;;5110912;28;20026;-79
2021/06/14 03:11:23;;;;;;;0.60;0.35;;;17.60;93.30;;;;;;5109229;28;20053;-80
2021/06/14 03:13:50;;;;;;;2.08;0.60;;;17.50;93.50;;;;;;5112589;28;20050;-77
2021/06/14 03:16:18;;;;;;;0.47;0.35;;;17.40;93.70;;;;;;5113031;28;20019;-76
2021/06/14 03:18:44;;;;;;;0.22;0.20;;;17.30;93.80;;;;;;5113087;28;20068;-79
2021/06/14 03:21:11;;;;;;;0.30;0.22;;;17.20;93.80;;;;;;5096159;28;20030;-79
2021/06/14 03:23:37;;;;;;;0.80;0.38;;;17.20;94.00;;;;;;5111947;28;20082;-79
2021/06/14 03:26:08;;;;;;;0.68;0.50;;;17.10;93.80;;;;;;5111413;28;20481;-80
2021/06/14 03:28:34;;;;;;;5.18;0.40;;;17.10;93.90;;;;;;5112278;28;20118;-78
2021/06/14 03:31:01;;;;;;;1.05;0.30;;;17.10;93.80;;;;;;5113007;28;20442;-79
2021/06/14 03:33:27;;;;;;;0.13;0.13;;;17.10;93.70;;;;;;5110885;28;20028;-78
2021/06/14 03:35:54;;;;;;;0.10;0.10;;;17.10;93.50;;;;;;5110748;28;20035;-78
2021/06/14 03:38:20;;;;;;;0.35;0.03;;;17.10;93.30;;;;;;5111461;28;20107;-78
2021/06/14 03:40:46;;;;;;;0.15;0.10;;;17.10;93.20;;;;;;5111173;28;20028;-78
2021/06/14 03:43:12;;;;;;;0.17;0.17;;;17.10;93.10;;;;;;5095263;28;20521;-80
2021/06/14 03:45:37;;;;;;;0.50;0.20;;;17.10;93.00;;;;;;5112913;28;20028;-76
2021/06/14 03:48:04;;;;;;;1.30;0.30;;;17.10;92.90;;;;;;5114752;28;20169;-79
2021/06/14 03:50:30;;;;;;;0.57;0.20;;;17.00;92.70;;;;;;5078647;28;20555;-78
2021/06/14 03:52:56;;;;;;;0.30;0.20;;;17.00;92.70;;;;;;5112549;28;20112;-79
2021/06/14 03:55:22;;;;;;;0.40;0.20;;;17.00;92.50;;;;;;5113873;28;20024;-79
2021/06/14 03:57:48;;;;;;;0.32;0.20;;;17.00;92.40;;;;;;5115132;28;20015;-79
2021/06/14 04:00:15;;;;;;;0.90;0.17;;;17.00;92.30;;;;;;5114014;28;20043;-76
2021/06/14 04:02:41;;;;;;;0.28;0.20;;;17.00;92.20;;;;;;5113575;28;20020;-79
2021/06/14 04:05:09;;;;;;;0.35;0.20;;;17.00;92.00;;;;;;5113689;28;20020;-80
2021/06/14 04:07:35;;;;;;;0.57;0.20;;;17.00;91.80;;;;;;5096216;28;20027;-80
2021/06/14 04:10:03;;;;;;;0.40;0.13;;;16.90;91.60;;;;;;5112713;28;20477;-80
2021/06/14 04:12:29;;;;;;;0.93;0.32;;;16.90;91.50;;;;;;5112384;28;20023;-79
2021/06/14 04:14:56;;;;;;;0.85;0.40;;;16.80;91.40;;;;;;5078013;28;20091;-79
2021/06/14 04:17:22;;;;;;;1.15;0.30;;;16.80;91.30;;;;;;5094811;28;20140;-80
2021/06/14 04:19:48;;;;;;;0.63;0.20;;;16.80;91.20;;;;;;5111542;28;20026;-79
2021/06/14 04:22:14;;;;;;;0.10;0.03;;;16.70;91.30;;;;;;5093253;28;20023;-80
2021/06/14 04:24:40;;;;;;;0.63;0.38;;;16.80;91.40;;;;;;5111357;28;20030;-81
2021/06/14 04:27:06;;;;;;;0.13;0.10;;;16.70;91.40;;;;;;5092935;28;20028;-80
2021/06/14 04:29:33;;;;;;;0.60;0.15;;;16.80;91.50;;;;;;5111713;28;20028;-80
2021/06/14 04:31:59;;;;;;;0.50;0.20;;;16.90;91.50;;;;;;5109846;28;20063;-79
2021/06/14 04:34:26;;;;;;;0.25;0.20;;;16.90;91.30;;;;;;5093644;28;20058;-80
2021/06/14 04:36:51;;;;;;;1.40;0.47;;;17.00;91.20;;;;;;5093435;28;20073;-77
2021/06/14 04:39:17;;;;;;;0.57;0.20;;;17.00;91.10;;;;;;5094054;28;20098;-80
2021/06/14 04:41:43;;;;;;;3.20;0.75;;;17.00;90.90;;;;;;5092683;28;20023;-78
2021/06/14 04:44:09;;;;;;;0.77;0.30;;;17.00;90.70;;;;;;5094104;28;20033;-79
2021/06/14 04:46:34;;;;;;;2.33;0.40;;;17.00;90.60;;;;;;5094074;28;20080;-79
2021/06/14 04:49:00;;;;;;;2.03;0.40;;;17.00;90.40;;;;;;5093743;28;20053;-81
2021/06/14 04:51:26;;;;;;;1.23;0.40;;;16.90;90.30;;;;;;5110312;28;20059;-79
2021/06/14 04:53:52;;;;;;;1.95;0.57;;;17.00;90.10;;;;;;5093482;28;20108;-79
2021/06/14 04:56:18;;;;;;;2.53;0.60;;;16.90;90.00;;;;;;5094418;28;20026;-80
2021/06/14 04:58:43;;;;;;;1.30;0.70;;;16.90;89.70;;;;;;5110331;28;20381;-82
2021/06/14 05:01:09;;;;;;;1.52;0.68;;;16.90;90.00;;;;;;5111554;28;20047;-79
2021/06/14 05:03:35;;;;;;;6.20;0.60;;;16.90;89.20;;;;;;5111620;28;20055;-78
2021/06/14 05:06:01;;;;;;;4.57;0.60;;;17.00;89.10;;;;;;5093154;28;20027;-80
2021/06/14 05:08:27;;;;;;;1.83;0.40;;;17.00;88.80;;;;;;5109058;28;20027;-80
2021/06/14 05:10:53;;;;;;;1.55;0.50;;;17.00;88.40;;;;;;5109626;28;20515;-80
2021/06/14 05:13:18;;;;;;;5.28;1.17;;;17.10;88.10;;;;;;5108899;28;20389;-79
2021/06/14 05:15:44;;;;;;;4.85;0.80;;;17.00;87.70;;;;;;5109718;28;20028;-79
2021/06/14 05:18:10;;;;;;;3.92;0.57;;;17.00;87.50;;;;;;5110073;28;20035;-79
2021/06/14 05:20:36;;;;;;;2.70;0.52;;;17.10;87.30;;;;;;5110030;28;20024;-80
2021/06/14 05:23:03;;;;;;;7.50;0.70;;;17.10;87.10;;;;;;5093744;28;20393;-80
2021/06/14 05:25:30;;;;;;;5.35;0.95;;;17.10;86.60;;;;;;5110526;28;20028;-80
2021/06/14 05:27:56;;;;;;;2.97;0.47;;;17.10;86.60;;;;;;5113043;28;20032;-79
2021/06/14 05:30:22;;;;;;;5.57;0.90;;;17.10;86.50;;;;;;5111021;28;20068;-77
2021/06/14 05:32:48;;;;;;;3.97;1.17;;;17.20;86.20;;;;;;5092881;28;20492;-80
2021/06/14 05:35:14;;;;;;;4.47;1.00;;;17.10;86.10;;;;;;5092430;28;20028;-81
2021/06/14 05:37:40;;;;;;;4.47;1.08;;;17.20;86.40;;;;;;5093214;28;20566;-80
2021/06/14 05:40:08;;;;;;;4.85;1.15;;;17.10;86.30;;;;;;5093605;28;20051;-79
2021/06/14 05:42:34;;;;;;;7.80;1.30;;;17.20;86.00;;;;;;5110529;28;20028;-78
2021/06/14 05:45:00;;;;;;;9.85;1.10;;;17.20;85.70;;;;;;5110792;28;20019;-76
2021/06/14 05:47:26;;;;;;;2.85;1.00;;;17.20;85.00;;;;;;5110284;28;20081;-77
2021/06/14 05:49:51;;;;;;;5.28;1.33;;;17.20;84.70;;;;;;5092575;28;20028;-79
2021/06/14 05:52:17;;;;;;;4.45;1.05;;;17.30;84.60;;;;;;5113209;28;20717;-79
2021/06/14 05:54:43;;;;;;;3.55;1.33;;;17.40;84.20;;;;;;5110149;28;20054;-81
2021/06/14 05:57:09;;;;;;;7.25;1.38;;;17.50;83.80;;;;;;5110949;28;20023;-81
2021/06/14 05:59:34;;;;;;;4.85;1.40;;;17.60;83.40;;;;;;5093814;28;20392;-79
2021/06/14 06:02:02;;;;;;;12.55;1.70;;;17.70;82.50;;;;;;5110593;28;20055;-79
2021/06/14 06:04:28;;;;;;;8.60;2.08;;;17.70;82.00;;;;;;5094609;28;20066;-77
2021/06/14 06:06:53;;;;;;;15.25;2.70;;;17.80;81.50;;;;;;5111553;28;20078;-79
2021/06/14 06:09:19;;;;;;;7.53;1.58;;;17.80;81.50;;;;;;5093400;28;20405;-77
2021/06/14 06:11:45;;;;;;;11.82;1.80;;;17.90;81.50;;;;;;5111052;28;20148;-77
2021/06/14 06:14:12;;;;;;;13.65;1.95;;;18.00;81.40;;;;;;5111368;28;20030;-80
2021/06/14 06:16:37;;;;;;;8.23;1.60;;;18.20;80.80;;;;;;5092566;28;20397;-80
2021/06/14 06:19:03;;;;;;;5.75;1.10;;;18.30;80.40;;;;;;5090649;28;20030;-80
2021/06/14 06:21:29;;;;;;;6.50;1.30;;;18.60;80.20;;;;;;5107014;28;20444;-79
2021/06/14 06:23:54;;;;;;;7.22;1.70;;;19.00;79.40;;;;;;5090350;28;20081;-79
2021/06/14 06:26:20;;;;;;;7.20;2.45;;;19.40;78.40;;;;;;5107406;28;20047;-80
2021/06/14 06:28:46;;;;;;;7.22;1.67;;;19.80;77.20;;;;;;5108293;28;20034;-80
2021/06/14 06:31:12;;;;;;;8.85;1.20;;;20.00;76.00;;;;;;5091110;28;20118;-78
2021/06/14 06:33:38;;;;;;;8.68;2.03;;;20.10;74.90;;;;;;5091832;28;20039;-77
2021/06/14 06:36:04;;;;;;;10.60;1.20;;;20.20;74.80;;;;;;5091369;28;20032;-78
2021/06/14 06:38:29;;;;;;;7.18;0.98;;;20.30;74.00;;;;;;5108465;28;20028;-79
2021/06/14 06:40:55;;;;;;;4.40;1.48;;;20.40;73.40;;;;;;5107877;28;20389;-79
2021/06/14 06:43:21;;;;;;;10.98;2.70;;;20.50;72.90;;;;;;5089977;28;20391;-79
2021/06/14 06:45:47;;;;;;;7.43;1.38;;;20.60;72.50;;;;;;5073967;28;20035;-82
2021/06/14 06:48:12;;;;;;;7.82;1.20;;;20.60;72.20;;;;;;5110244;28;20032;-78
2021/06/14 06:50:38;;;;;;;2.30;1.02;;;20.80;71.80;;;;;;5095177;28;20496;-78
2021/06/14 06:53:04;;;;;;;4.70;1.02;;;21.00;71.50;;;;;;5111549;28;20047;-81
2021/06/14 06:55:30;;;;;;;3.30;0.60;;;21.50;71.20;;;;;;5094054;28;20128;-79
2021/06/14 06:57:57;;;;;;;2.47;0.98;;;22.20;70.10;;;;;;5112777;28;20067;-80
2021/06/14 07:00:23;;;;;;;2.67;0.88;;;22.70;68.60;;;;;;5094430;28;20093;-82
2021/06/14 07:02:50;;;;;;;2.65;0.73;;;23.40;67.40;;;;;;5093749;28;20030;-78
2021/06/14 07:05:16;;;;;;;7.80;0.80;;;23.80;65.10;;;;;;5094139;28;20543;-82
2021/06/14 07:07:43;;;;;;;9.05;0.98;;;23.70;63.90;;;;;;5094418;28;20393;-78
2021/06/14 07:10:10;;;;;;;1.98;0.60;;;23.40;62.60;;;;;;5111409;28;20428;-78
2021/06/14 07:12:37;;;;;;;2.83;0.47;;;22.60;62.50;;;;;;5111239;28;20035;-78
2021/06/14 07:15:04;;;;;;;5.60;1.13;;;21.90;63.50;;;;;;5111543;28;20038;-79
2021/06/14 07:17:30;;;;;;;9.23;1.02;;;21.50;64.80;;;;;;5112633;28;20028;-80
2021/06/14 07:19:56;;;;;;;4.53;1.02;;;21.70;65.40;;;;;;5094292;28;20027;-80
2021/06/14 07:22:21;;;;;;;3.25;0.68;;;22.10;65.10;;;;;;5096165;28;20118;-78
2021/06/14 07:24:47;;;;;;;5.60;0.95;;;22.80;64.70;;;;;;5112581;28;20027;-79
2021/06/14 07:27:13;;;;;;;4.53;1.08;;;23.30;63.30;;;;;;5113549;28;20481;-79
2021/06/14 07:29:39;;;;;;;3.08;1.42;;;23.50;61.20;;;;;;5093999;28;20501;-79
2021/06/14 07:32:05;;;;;;;4.07;1.02;;;23.50;60.90;;;;;;5092620;28;20038;-80
2021/06/14 07:34:31;;;;;;;5.20;1.48;;;23.70;60.50;;;;;;5110043;28;20024;-81
2021/06/14 07:36:57;;;;;;;6.20;1.15;;;23.80;60.00;;;;;;5111252;28;20028;-79
2021/06/14 07:39:23;;;;;;;4.80;1.15;;;23.80;59.40;;;;;;5110047;28;20034;-80
2021/06/14 07:41:49;;;;;;;5.70;1.38;;;23.80;58.60;;;;;;5111149;28;20020;-81
2021/06/14 07:44:15;;;;;;;6.90;1.17;;;23.70;58.60;;;;;;5109750;28;20050;-82
2021/06/14 07:46:41;;;;;;;9.18;1.77;;;23.80;58.30;;;;;;5092827;28;20035;-82
2021/06/14 07:49:07;;;;;;;6.00;1.38;;;24.00;57.70;;;;;;5109419;28;20055;-81
2021/06/14 07:51:32;;;;;;;11.13;1.70;;;24.20;57.40;;;;;;5075474;28;20085;-80
2021/06/14 07:53:58;;;;;;;3.45;1.42;;;24.60;57.40;;;;;;5109604;28;20380;-81
2021/06/14 07:56:24;;;;;;;5.00;1.23;;;25.10;56.50;;;;;;5109623;28;20435;-81
2021/06/14 07:58:51;;;;;;;7.03;1.20;;;25.20;55.50;;;;;;5109851;28;20024;-80
2021/06/14 08:01:17;;;;;;;5.97;1.33;;;25.30;54.80;;;;;;5109322;28;20050;-81
2021/06/14 08:03:42;;;;;;;9.07;1.70;;;25.40;54.30;;;;;;5110366;28;20470;-81
2021/06/14 08:06:08;;;;;;;5.18;1.92;;;25.20;54.00;;;;;;5109632;28;20092;-81
2021/06/14 08:08:35;;;;;;;9.20;1.67;;;24.80;53.70;;;;;;5092992;28;20030;-78
2021/06/14 08:11:01;;;;;;;9.73;2.00;;;24.40;53.60;;;;;;5109338;28;20020;-82
2021/06/14 08:13:29;;;;;;;9.52;1.63;;;24.00;54.00;;;;;;5111583;28;20035;-79
2021/06/14 08:15:55;;;;;;;8.18;1.88;;;24.00;54.50;;;;;;5110526;28;20019;-80
2021/06/14 08:26:26;;;;;;;5.15;1.67;;;25.10;53.40;;;;;;5104299;28;20054;-77
2021/06/14 08:28:54;;;;;;;4.43;1.40;;;25.20;52.70;;;;;;5106069;28;20026;-78
2021/06/14 08:31:20;;;;;;;5.40;1.85;;;24.90;52.40;;;;;;5107926;28;20497;-77
2021/06/14 08:33:46;;;;;;;3.72;1.40;;;24.60;52.60;;;;;;5131023;27;20348;-78
2021/06/14 08:36:12;;;;;;;8.82;1.90;;;24.50;52.60;;;;;;5133290;27;20454;-77
2021/06/14 08:38:38;;;;;;;9.98;2.10;;;24.20;52.30;;;;;;5105139;28;20024;-78
2021/06/14 08:41:04;;;;;;;10.90;1.50;;;23.80;52.40;;;;;;5090335;28;20597;-77
2021/06/14 08:43:30;;;;;;;6.78;1.65;;;23.60;52.60;;;;;;5108907;28;20040;-77
2021/06/14 08:45:57;;;;;;;4.40;1.67;;;23.70;53.00;;;;;;5107873;28;20035;-76
2021/06/14 08:48:23;;;;;;;6.15;1.65;;;23.80;53.00;;;;;;5109245;28;20028;-77
2021/06/14 08:50:50;;;;;;;6.70;1.65;;;23.90;52.80;;;;;;5108940;28;20031;-76
2021/06/14 08:53:16;;;;;;;6.97;1.75;;;24.40;53.60;;;;;;5108703;28;20031;-78
2021/06/14 08:55:41;;;;;;;5.03;1.77;;;25.60;53.60;;;;;;5108952;27;20117;-77
2021/06/14 08:58:07;;;;;;;4.57;1.38;;;26.50;52.10;;;;;;5107588;28;20461;-76
2021/06/14 09:00:34;;;;;;;8.43;3.00;;;26.40;50.60;;;;;;5107305;28;20055;-78
2021/06/14 09:03:00;;;;;;;6.05;1.42;;;26.40;51.00;;;;;;5107501;28;20478;-78
2021/06/14 09:05:27;;;;;;;9.15;1.60;;;27.20;51.40;;;;;;5108651;28;20033;-79
2021/06/14 09:07:59;;;;;;;8.75;2.08;;;28.00;50.60;;;;;;5107560;28;20393;-76
2021/06/14 09:10:29;;;;;;;5.22;1.38;;;28.30;49.00;;;;;;5106568;28;20056;-79
2021/06/14 09:13:12;;;;;;;4.85;1.27;;;28.70;48.80;;;;;;5106833;28;20354;-77
2021/06/14 09:15:41;;;;;;;8.38;1.75;;;29.40;48.30;;;;;;5110079;28;20016;-77
2021/06/14 09:18:27;;;;;;;7.45;1.45;;;30.10;47.70;;;;;;5108528;28;20335;-78
2021/06/14 09:21:14;;;;;;;5.93;1.60;;;30.20;46.90;;;;;;5108876;28;20030;-78
2021/06/14 09:23:48;;;;;;;4.50;1.45;;;30.40;46.80;;;;;;5110551;28;20027;-78
2021/06/14 09:26:30;;;;;;;4.97;1.80;;;30.90;46.80;;;;;;5110255;28;20023;-78
2021/06/14 09:29:05;;;;;;;5.22;1.70;;;31.00;45.70;;;;;;5110029;28;20117;-79
2021/06/14 09:31:48;;;;;;;6.85;1.85;;;31.00;45.60;;;;;;5107058;27;20574;-79
2021/06/14 09:34:15;;;;;;;4.47;1.45;;;31.00;45.00;;;;;;5114928;27;20031;-77
2021/06/14 09:36:46;;;;;;;7.47;1.77;;;31.20;45.00;;;;;;5103825;28;20073;-78
2021/06/14 09:39:20;;;;;;;6.57;1.63;;;31.10;44.50;;;;;;5127582;27;20538;-77
2021/06/14 09:41:51;;;;;;;8.88;1.90;;;30.90;43.90;;;;;;5087365;28;20043;-78
2021/06/14 09:44:31;;;;;;;5.45;1.60;;;30.80;43.80;;;;;;5105880;28;20007;-78
2021/06/14 09:47:05;;;;;;;7.70;2.05;;;30.50;43.20;;;;;;5104031;28;20106;-78
2021/06/14 09:49:33;;;;;;;4.47;1.63;;;29.90;42.90;;;;;;5103020;28;20021;-77
2021/06/14 09:51:59;;;;;;;8.75;1.67;;;29.30;43.20;;;;;;5106885;28;20008;-78
2021/06/14 09:54:29;;;;;;;6.75;1.90;;;29.00;43.60;;;;;;5105680;28;20361;-79
2021/06/14 09:56:57;;;;;;;6.63;1.88;;;28.70;43.80;;;;;;5108316;28;20019;-79
2021/06/14 09:59:39;;;;;;;6.82;1.73;;;28.50;44.30;;;;;;5108305;28;20079;-79
2021/06/14 10:02:17;;;;;;;8.93;2.20;;;28.20;44.00;;;;;;5101701;28;20039;-77
2021/06/14 10:04:54;;;;;;;8.30;1.63;;;28.00;44.20;;;;;;5109703;28;20024;-81
2021/06/14 10:07:21;;;;;;;7.72;2.67;;;27.70;44.40;;;;;;5109475;28;20023;-79
2021/06/14 10:09:49;;;;;;;8.63;1.80;;;27.60;44.90;;;;;;5110664;28;20438;-81
2021/06/14 10:12:17;;;;;;;8.50;2.08;;;27.60;44.80;;;;;;5109297;28;20104;-78
2021/06/14 10:14:55;;;;;;;7.05;1.88;;;27.60;44.50;;;;;;5110341;28;20102;-81
2021/06/14 10:17:38;;;;;;;6.45;1.65;;;27.20;44.50;;;;;;5108732;28;20043;-79
2021/06/14 10:20:25;;;;;;;6.95;1.85;;;26.80;44.50;;;;;;5108868;28;20439;-80
2021/06/14 10:22:53;;;;;;;8.35;1.80;;;26.50;44.70;;;;;;5112073;28;20411;-80
2021/06/14 10:25:20;;;;;;;8.77;2.00;;;26.30;44.60;;;;;;5113821;28;20024;-81
2021/06/14 10:27:47;;;;;;;5.03;1.67;;;26.20;45.00;;;;;;5112826;28;20076;-80
2021/06/14 10:30:15;;;;;;;14.32;1.77;;;26.40;45.40;;;;;;5113151;28;20023;-80
2021/06/14 10:32:43;;;;;;;17.95;2.53;;;26.40;45.30;;;;;;5114234;28;20112;-80
2021/06/14 10:35:11;;;;;;;8.70;2.38;;;26.50;45.40;;;;;;5113044;28;20473;-79
2021/06/14 10:37:49;;;;;;;5.87;1.57;;;26.40;45.20;;;;;;5112758;28;20079;-80
2021/06/14 10:40:18;;;;;;;7.38;1.77;;;26.30;45.50;;;;;;5113738;28;20350;-78
2021/06/14 10:42:45;;;;;;;20.10;2.03;;;26.10;45.30;;;;;;5114105;28;20019;-81
2021/06/14 10:45:13;;;;;;;5.88;1.60;;;26.00;45.30;;;;;;5113487;28;20023;-80
2021/06/14 10:47:40;;;;;;;9.68;2.13;;;25.80;45.30;;;;;;5112901;28;20535;-80
2021/06/14 10:50:10;;;;;;;7.70;1.98;;;25.60;45.20;;;;;;5112166;28;20026;-79
2021/06/14 10:52:43;;;;;;;9.40;1.90;;;25.40;45.20;;;;;;5113646;28;20023;-78
2021/06/14 10:55:12;;;;;;;10.73;2.20;;;25.20;45.10;;;;;;5114257;28;20113;-79
2021/06/14 10:57:39;;;;;;;10.40;2.50;;;25.10;45.60;;;;;;5095618;28;20028;-81
2021/06/14 11:00:27;;;;;;;13.27;2.40;;;25.10;46.00;;;;;;5112311;28;20024;-79
2021/06/14 11:03:04;;;;;;;9.85;3.05;;;25.00;46.20;;;;;;5099496;28;20047;-79
2021/06/14 11:05:48;;;;;;;9.07;2.95;;;25.00;46.40;;;;;;5103492;27;20039;-79
2021/06/14 11:08:16;;;;;;;9.80;2.53;;;25.00;46.40;;;;;;5094907;28;20032;-79
2021/06/14 11:10:50;;;;;;;9.73;2.58;;;25.00;46.30;;;;;;5113294;28;20039;-80
2021/06/14 11:13:16;;;;;;;8.70;2.50;;;24.90;46.70;;;;;;5111912;28;20031;-78
2021/06/14 11:15:45;;;;;;;10.88;3.00;;;24.80;46.80;;;;;;5095051;28;20028;-82
2021/06/14 11:18:22;;;;;;;10.52;2.00;;;24.60;46.70;;;;;;5112014;28;20529;-80
2021/06/14 11:20:48;;;;;;;15.23;2.55;;;24.50;47.10;;;;;;5113356;28;20081;-81
2021/06/14 11:23:27;;;;;;;9.02;2.90;;;24.40;47.10;;;;;;5095954;28;20023;-80
2021/06/14 11:25:54;;;;;;;8.88;2.63;;;24.20;47.20;;;;;;5113770;27;20024;-81
2021/06/14 11:28:41;;;;;;;13.32;2.83;;;24.10;47.50;;;;;;5129979;27;20050;-78
2021/06/14 11:31:27;;;;;;;12.60;2.50;;;24.00;47.80;;;;;;5113565;28;20027;-83
2021/06/14 11:33:58;;;;;;;9.57;2.00;;;24.10;47.80;;;;;;5094088;28;20042;-81
2021/06/14 11:36:29;;;;;;;6.88;2.28;;;24.10;47.70;;;;;;5112329;28;20489;-79
2021/06/14 11:38:56;;;;;;;6.82;1.67;;;24.00;47.60;;;;;;5114255;28;20012;-81
2021/06/14 11:41:26;;;;;;;10.63;2.47;;;24.00;48.10;;;;;;5113125;27;20418;-85
2021/06/14 11:44:18;;;;;;;13.38;2.33;;;24.00;48.20;;;;;;5113127;28;20027;-82
2021/06/14 11:46:45;;;;;;;8.75;2.70;;;24.00;47.90;;;;;;5100809;28;20043;-81
2021/06/14 11:49:11;;;;;;;6.93;2.55;;;24.10;48.00;;;;;;5112668;28;20477;-80
2021/06/14 11:51:37;;;;;;;8.68;2.15;;;24.10;48.20;;;;;;5111467;28;20106;-81
2021/06/14 11:54:04;;;;;;;9.98;2.15;;;24.10;48.10;;;;;;5127626;27;20438;-80
2021/06/14 11:56:38;;;;;;;9.32;2.03;;;24.10;48.00;;;;;;5112629;28;20028;-82
2021/06/14 11:59:05;;;;;;;9.52;1.92;;;24.20;48.30;;;;;;5094650;28;20110;-79
2021/06/14 12:01:34;;;;;;;8.48;2.40;;;24.30;48.30;;;;;;5109952;28;20047;-81
2021/06/14 12:04:03;;;;;;;6.82;2.20;;;24.50;48.20;;;;;;5112214;28;20032;-81
2021/06/14 12:06:47;;;;;;;7.63;2.40;;;24.60;48.10;;;;;;5128026;27;20403;-80
2021/06/14 12:09:21;;;;;;;12.63;3.63;;;24.80;47.70;;;;;;5112520;28;20438;-81
2021/06/14 12:11:56;;;;;;;10.73;2.28;;;24.90;47.60;;;;;;5111534;28;20024;-80
2021/06/14 12:14:21;;;;;;;9.45;1.90;;;24.90;47.60;;;;;;5111631;28;20127;-82
2021/06/14 12:17:05;;;;;;;10.40;2.47;;;25.00;47.60;;;;;;5093780;28;20679;-80
2021/06/14 12:19:34;;;;;;;8.13;2.40;;;25.00;47.40;;;;;;5109451;28;20068;-80
2021/06/14 12:22:06;;;;;;;9.98;2.83;;;25.10;47.20;;;;;;5111621;28;20051;-77
2021/06/14 12:24:37;;;;;;;9.63;2.78;;;25.00;47.10;;;;;;5110250;28;20035;-79
2021/06/14 12:27:08;;;;;;;10.70;3.22;;;25.00;47.10;;;;;;5111457;28;20054;-78
2021/06/14 12:29:34;;;;;;;11.40;2.45;;;24.90;47.00;;;;;;5111377;28;20457;-79
2021/06/14 12:32:12;;;;;;;9.88;2.20;;;24.70;47.10;;;;;;5111656;28;20031;-79
2021/06/14 12:34:39;;;;;;;7.85;1.80;;;24.60;47.40;;;;;;5104464;28;20084;-77
2021/06/14 12:37:17;;;;;;;8.30;1.88;;;24.50;47.10;;;;;;5110292;28;20020;-78
2021/06/14 12:39:53;;;;;;;7.57;2.58;;;24.30;47.20;;;;;;5109321;28;20039;-81
2021/06/14 12:42:20;;;;;;;13.75;5.57;;;24.30;47.70;;;;;;5110768;28;20020;-78
2021/06/14 12:45:13;;;;;;;8.98;2.83;;;24.20;47.70;;;;;;5109321;28;20095;-80
2021/06/14 12:47:44;;;;;;;13.88;3.00;;;24.10;47.70;;;;;;5105199;28;20505;-80
2021/06/14 12:50:23;;;;;;;6.70;2.38;;;24.00;47.60;;;;;;5106164;28;20043;-79
2021/06/14 12:52:49;;;;;;;8.30;2.10;;;23.80;47.60;;;;;;5109169;28;20016;-78
2021/06/14 12:55:27;;;;;;;10.07;2.97;;;23.70;48.00;;;;;;5111194;28;20172;-81
2021/06/14 12:57:53;;;;;;;9.75;2.20;;;23.60;48.10;;;;;;5104366;28;20168;-79
2021/06/14 13:00:21;;;;;;;10.25;2.70;;;23.60;48.00;;;;;;5108582;28;20027;-79
2021/06/14 13:02:55;;;;;;;10.50;2.42;;;23.60;47.90;;;;;;5110862;28;20027;-78